sensor_id;sensor_type;location;lat;lon;timestamp;pressure;altitude;pressure_sealevel;temperature;humidity
22755;BME280;11544;42.020;23.094;2022-12-11T00:22:18;95265.69;;;14.66;100.00
22755;BME280;11544;42.020;23.094;2022-12-11T00:24:48;95275.88;;;14.80;100.00
22755;BME280;11544;42.020;23.094;2022-12-11T00:27:20;95270.28;;;14.73;100.00
22755;BME280;11544;42.020;23.094;2022-12-11T00:29:47;95271.19;;;14.63;100.00
22755;BME280;11544;42.020;23.094;2022-12-11T00:32:14;95281.03;;;14.70;100.00
22755;BME280;11544;42.020;23.094;2022-12-11T00:34:46;95275.69;;;14.72;100.00
22755;BME280;11544;42.020;23.094;2022-12-11T00:37:21;95278.31;;;14.72;100.00
22755;BME280;11544;42.020;23.094;2022-12-11T00:39:48;95277.22;;;14.74;100.00
22755;BME280;11544;42.020;23.094;2022-12-11T00:42:22;95267.56;;;14.75;100.00
22755;BME280;11544;42.020;23.094;2022-12-11T00:44:52;95277.22;;;14.74;100.00
22755;BME280;11544;42.020;23.094;2022-12-11T00:47:21;95248.88;;;14.68;100.00
22755;BME280;11544;42.020;23.094;2022-12-11T00:49:51;95258.84;;;14.74;100.00
22755;BME280;11544;42.020;23.094;2022-12-11T00:52:31;95255.22;;;14.87;100.00
22755;BME280;11544;42.020;23.094;2022-12-11T00:55:34;95235.75;;;14.89;100.00
22755;BME280;11544;42.020;23.094;2022-12-11T00:58:06;95234.28;;;14.75;100.00
22755;BME280;11544;42.020;23.094;2022-12-11T01:01:13;95222.13;;;14.95;100.00
22755;BME280;11544;42.020;23.094;2022-12-11T01:03:53;95230.75;;;15.07;100.00
22755;BME280;11544;42.020;23.094;2022-12-11T01:06:23;95239.63;;;15.16;100.00
22755;BME280;11544;42.020;23.094;2022-12-11T01:08:53;95268.09;;;15.20;100.00
22755;BME280;11544;42.020;23.094;2022-12-11T01:11:45;95249.38;;;15.35;100.00
22755;BME280;11544;42.020;23.094;2022-12-11T01:14:50;95274.81;;;15.34;100.00
22755;BME280;11544;42.020;23.094;2022-12-11T01:17:22;95282.13;;;15.31;100.00
22755;BME280;11544;42.020;23.094;2022-12-11T01:19:49;95312.66;;;15.11;100.00
22755;BME280;11544;42.020;23.094;2022-12-11T01:26:20;95376.44;;;14.58;100.00
22755;BME280;11544;42.020;23.094;2022-12-11T01:29:22;95372.25;;;14.44;100.00
22755;BME280;11544;42.020;23.094;2022-12-11T01:32:03;95370.59;;;14.54;100.00
22755;BME280;11544;42.020;23.094;2022-12-11T01:34:31;95364.03;;;14.60;100.00
22755;BME280;11544;42.020;23.094;2022-12-11T01:37:17;95343.19;;;14.58;100.00
22755;BME280;11544;42.020;23.094;2022-12-11T01:39:48;95363.44;;;14.56;100.00
22755;BME280;11544;42.020;23.094;2022-12-11T01:42:41;95370.94;;;14.50;100.00
22755;BME280;11544;42.020;23.094;2022-12-11T01:48:36;95364.94;;;14.15;100.00
22755;BME280;11544;42.020;23.094;2022-12-11T01:51:08;95350.50;;;14.21;100.00
22755;BME280;11544;42.020;23.094;2022-12-11T01:53:46;95353.38;;;14.29;100.00
22755;BME280;11544;42.020;23.094;2022-12-11T01:56:18;95346.56;;;14.27;100.00
22755;BME280;11544;42.020;23.094;2022-12-11T01:58:55;95352.03;;;14.35;100.00
22755;BME280;11544;42.020;23.094;2022-12-11T02:01:35;95360.38;;;14.29;100.00
22755;BME280;11544;42.020;23.094;2022-12-11T02:04:03;95345.63;;;14.28;100.00
22755;BME280;11544;42.020;23.094;2022-12-11T02:09:01;95333.56;;;14.36;100.00
22755;BME280;11544;42.020;23.094;2022-12-11T02:39:14;95323.78;;;14.82;100.00
22755;BME280;11544;42.020;23.094;2022-12-11T04:50:50;95344.53;;;14.74;100.00
22755;BME280;11544;42.020;23.094;2022-12-11T04:53:27;95348.16;;;14.61;100.00
22755;BME280;11544;42.020;23.094;2022-12-11T04:56:08;95348.97;;;14.73;100.00
22755;BME280;11544;42.020;23.094;2022-12-11T07:16:08;95349.66;;;15.08;100.00
22755;BME280;11544;42.020;23.094;2022-12-11T07:18:41;95353.03;;;14.98;100.00
22755;BME280;11544;42.020;23.094;2022-12-11T07:21:11;95341.72;;;14.98;100.00
22755;BME280;11544;42.020;23.094;2022-12-11T07:23:38;95348.25;;;15.03;100.00
22755;BME280;11544;42.020;23.094;2022-12-11T07:26:09;95348.75;;;15.18;100.00
22755;BME280;11544;42.020;23.094;2022-12-11T07:28:36;95340.75;;;15.20;100.00
22755;BME280;11544;42.020;23.094;2022-12-11T07:31:05;95346.00;;;15.20;100.00
22755;BME280;11544;42.020;23.094;2022-12-11T07:33:36;95347.44;;;15.24;100.00
22755;BME280;11544;42.020;23.094;2022-12-11T07:36:05;95354.91;;;15.29;100.00
22755;BME280;11544;42.020;23.094;2022-12-11T07:38:38;95343.69;;;15.48;100.00
22755;BME280;11544;42.020;23.094;2022-12-11T07:41:11;95349.22;;;15.54;100.00
22755;BME280;11544;42.020;23.094;2022-12-11T07:43:41;95349.97;;;15.35;100.00
22755;BME280;11544;42.020;23.094;2022-12-11T08:03:17;95287.78;;;16.86;100.00
22755;BME280;11544;42.020;23.094;2022-12-11T08:22:23;95277.75;;;17.66;92.65
22755;BME280;11544;42.020;23.094;2022-12-11T08:24:53;95275.75;;;17.78;90.77
22755;BME280;11544;42.020;23.094;2022-12-11T08:27:34;95262.81;;;18.22;88.32
22755;BME280;11544;42.020;23.094;2022-12-11T08:30:11;95268.91;;;18.58;88.18
22755;BME280;11544;42.020;23.094;2022-12-11T08:32:38;95262.72;;;18.32;86.23
22755;BME280;11544;42.020;23.094;2022-12-11T08:35:05;95266.22;;;18.50;85.31
22755;BME280;11544;42.020;23.094;2022-12-11T08:37:33;95261.22;;;18.29;86.22
22755;BME280;11544;42.020;23.094;2022-12-11T08:40:00;95245.03;;;18.42;85.01
22755;BME280;11544;42.020;23.094;2022-12-11T08:42:27;95250.63;;;19.19;82.83
22755;BME280;11544;42.020;23.094;2022-12-11T08:44:54;95246.13;;;19.11;77.95
22755;BME280;11544;42.020;23.094;2022-12-11T08:47:28;95247.72;;;18.68;76.77
22755;BME280;11544;42.020;23.094;2022-12-11T08:49:56;95240.94;;;18.12;77.44
22755;BME280;11544;42.020;23.094;2022-12-11T08:52:23;95251.72;;;18.72;77.16
22755;BME280;11544;42.020;23.094;2022-12-11T08:55:06;95244.94;;;18.16;76.36
22755;BME280;11544;42.020;23.094;2022-12-11T08:57:47;95237.56;;;18.37;75.87
22755;BME280;11544;42.020;23.094;2022-12-11T09:00:18;95230.25;;;18.49;74.87
22755;BME280;11544;42.020;23.094;2022-12-11T09:02:46;95235.44;;;18.59;74.76
22755;BME280;11544;42.020;23.094;2022-12-11T09:05:13;95227.63;;;18.31;74.64
22755;BME280;11544;42.020;23.094;2022-12-11T09:07:40;95234.72;;;18.31;75.02
22755;BME280;11544;42.020;23.094;2022-12-11T09:10:07;95236.63;;;17.55;78.78
22755;BME280;11544;42.020;23.094;2022-12-11T09:12:40;95232.88;;;17.86;80.16
22755;BME280;11544;42.020;23.094;2022-12-11T09:15:18;95229.25;;;17.59;80.88
22755;BME280;11544;42.020;23.094;2022-12-11T09:17:47;95237.66;;;17.72;79.27
22755;BME280;11544;42.020;23.094;2022-12-11T09:20:14;95233.13;;;17.65;81.02
22755;BME280;11544;42.020;23.094;2022-12-11T09:22:41;95218.84;;;17.30;81.53
22755;BME280;11544;42.020;23.094;2022-12-11T09:25:13;95218.63;;;17.13;81.96
22755;BME280;11544;42.020;23.094;2022-12-11T09:27:39;95228.81;;;17.26;82.75
22755;BME280;11544;42.020;23.094;2022-12-11T09:30:07;95224.16;;;17.48;80.45
22755;BME280;11544;42.020;23.094;2022-12-11T09:32:39;95216.50;;;17.17;80.84
22755;BME280;11544;42.020;23.094;2022-12-11T09:35:07;95220.06;;;17.35;81.28
22755;BME280;11544;42.020;23.094;2022-12-11T09:37:35;95228.78;;;17.36;82.06
22755;BME280;11544;42.020;23.094;2022-12-11T09:40:20;95231.25;;;17.00;83.17
22755;BME280;11544;42.020;23.094;2022-12-11T09:42:53;95230.31;;;16.91;84.46
22755;BME280;11544;42.020;23.094;2022-12-11T09:45:34;95217.75;;;17.23;82.82
22755;BME280;11544;42.020;23.094;2022-12-11T09:48:01;95212.25;;;17.16;82.60
22755;BME280;11544;42.020;23.094;2022-12-11T09:50:31;95218.19;;;17.18;82.53
22755;BME280;11544;42.020;23.094;2022-12-11T09:53:13;95221.56;;;17.10;83.32
22755;BME280;11544;42.020;23.094;2022-12-11T09:55:50;95218.06;;;17.10;83.77
22755;BME280;11544;42.020;23.094;2022-12-11T10:01:13;95206.91;;;16.88;82.47
22755;BME280;11544;42.020;23.094;2022-12-11T10:03:58;95204.81;;;16.92;83.23
22755;BME280;11544;42.020;23.094;2022-12-11T10:06:42;95206.22;;;16.96;83.09
22755;BME280;11544;42.020;23.094;2022-12-11T10:09:33;95196.50;;;16.97;83.10
22755;BME280;11544;42.020;23.094;2022-12-11T10:17:39;95199.59;;;16.72;83.98
22755;BME280;11544;42.020;23.094;2022-12-11T10:20:25;95198.31;;;16.77;85.73
22755;BME280;11544;42.020;23.094;2022-12-11T10:23:01;95194.03;;;16.66;86.74
22755;BME280;11544;42.020;23.094;2022-12-11T10:26:05;95189.88;;;16.73;85.43
22755;BME280;11544;42.020;23.094;2022-12-11T10:28:40;95181.59;;;16.68;86.34
22755;BME280;11544;42.020;23.094;2022-12-11T10:34:45;95170.63;;;16.92;85.80
22755;BME280;11544;42.020;23.094;2022-12-11T10:37:26;95176.16;;;16.79;86.25
22755;BME280;11544;42.020;23.094;2022-12-11T10:39:53;95177.69;;;16.82;86.53
22755;BME280;11544;42.020;23.094;2022-12-11T10:42:22;95170.50;;;16.64;87.59
22755;BME280;11544;42.020;23.094;2022-12-11T10:44:58;95178.97;;;16.68;88.80
22755;BME280;11544;42.020;23.094;2022-12-11T10:47:25;95174.94;;;16.64;88.93
22755;BME280;11544;42.020;23.094;2022-12-11T10:49:57;95179.53;;;16.52;90.22
22755;BME280;11544;42.020;23.094;2022-12-11T10:52:43;95171.88;;;16.68;90.07
22755;BME280;11544;42.020;23.094;2022-12-11T10:55:27;95175.22;;;16.61;91.00
22755;BME280;11544;42.020;23.094;2022-12-11T10:57:58;95172.34;;;16.44;93.01
22755;BME280;11544;42.020;23.094;2022-12-11T11:00:37;95173.72;;;16.29;93.46
22755;BME280;11544;42.020;23.094;2022-12-11T11:03:17;95181.72;;;16.27;95.87
22755;BME280;11544;42.020;23.094;2022-12-11T11:05:46;95177.75;;;16.23;97.35
22755;BME280;11544;42.020;23.094;2022-12-11T11:08:20;95181.31;;;16.13;99.84
22755;BME280;11544;42.020;23.094;2022-12-11T11:10:54;95179.25;;;16.06;100.00
22755;BME280;11544;42.020;23.094;2022-12-11T11:13:24;95173.44;;;15.83;100.00
22755;BME280;11544;42.020;23.094;2022-12-11T11:16:27;95178.00;;;15.91;100.00
22755;BME280;11544;42.020;23.094;2022-12-11T11:19:32;95169.56;;;16.07;100.00
22755;BME280;11544;42.020;23.094;2022-12-11T12:04:56;95176.13;;;15.62;98.62
22755;BME280;11544;42.020;23.094;2022-12-11T12:10:57;95178.31;;;15.57;100.00
22755;BME280;11544;42.020;23.094;2022-12-11T12:27:22;95189.25;;;15.22;100.00
22755;BME280;11544;42.020;23.094;2022-12-11T12:30:18;95187.97;;;15.16;100.00
22755;BME280;11544;42.020;23.094;2022-12-11T12:33:02;95197.03;;;15.02;100.00
22755;BME280;11544;42.020;23.094;2022-12-11T12:39:49;95210.22;;;14.91;100.00
22755;BME280;11544;42.020;23.094;2022-12-11T12:49:53;95229.69;;;14.89;100.00
22755;BME280;11544;42.020;23.094;2022-12-11T14:17:58;95344.22;;;13.67;100.00
22755;BME280;11544;42.020;23.094;2022-12-11T15:12:30;95355.19;;;13.95;100.00
22755;BME280;11544;42.020;23.094;2022-12-11T15:15:29;95361.28;;;13.84;100.00
22755;BME280;11544;42.020;23.094;2022-12-11T17:25:12;95513.84;;;12.79;100.00
22755;BME280;11544;42.020;23.094;2022-12-11T17:28:10;95526.88;;;12.91;100.00
22755;BME280;11544;42.020;23.094;2022-12-11T17:30:56;95537.94;;;12.58;100.00
22755;BME280;11544;42.020;23.094;2022-12-11T17:33:26;95533.22;;;12.63;100.00
22755;BME280;11544;42.020;23.094;2022-12-11T17:35:53;95544.31;;;12.54;100.00
22755;BME280;11544;42.020;23.094;2022-12-11T17:38:22;95540.03;;;12.53;100.00
22755;BME280;11544;42.020;23.094;2022-12-11T17:40:52;95540.88;;;12.54;100.00
22755;BME280;11544;42.020;23.094;2022-12-11T17:43:22;95540.69;;;12.31;100.00
22755;BME280;11544;42.020;23.094;2022-12-11T17:45:50;95537.97;;;12.20;100.00
22755;BME280;11544;42.020;23.094;2022-12-11T17:48:23;95538.28;;;12.28;100.00
22755;BME280;11544;42.020;23.094;2022-12-11T17:50:51;95526.50;;;12.10;100.00
22755;BME280;11544;42.020;23.094;2022-12-11T17:53:27;95532.13;;;12.16;100.00
22755;BME280;11544;42.020;23.094;2022-12-11T17:58:39;95531.03;;;11.80;100.00
22755;BME280;11544;42.020;23.094;2022-12-11T18:16:02;95566.41;;;11.05;100.00
22755;BME280;11544;42.020;23.094;2022-12-11T18:18:55;95580.25;;;10.64;100.00
22755;BME280;11544;42.020;23.094;2022-12-11T18:21:37;95569.66;;;10.38;100.00
22755;BME280;11544;42.020;23.094;2022-12-11T18:24:29;95570.44;;;10.24;100.00
22755;BME280;11544;42.020;23.094;2022-12-11T18:26:58;95581.22;;;10.18;100.00
22755;BME280;11544;42.020;23.094;2022-12-11T18:29:36;95583.69;;;10.35;100.00
22755;BME280;11544;42.020;23.094;2022-12-11T18:32:27;95586.81;;;10.12;100.00
22755;BME280;11544;42.020;23.094;2022-12-11T18:35:13;95579.69;;;10.30;100.00
22755;BME280;11544;42.020;23.094;2022-12-11T18:37:40;95583.47;;;10.24;100.00
22755;BME280;11544;42.020;23.094;2022-12-11T18:40:09;95582.13;;;10.33;100.00
22755;BME280;11544;42.020;23.094;2022-12-11T18:42:39;95595.78;;;10.36;100.00
22755;BME280;11544;42.020;23.094;2022-12-11T18:45:07;95605.50;;;10.18;100.00
22755;BME280;11544;42.020;23.094;2022-12-11T18:47:36;95594.97;;;10.06;100.00
22755;BME280;11544;42.020;23.094;2022-12-11T18:50:06;95610.44;;;10.23;100.00
22755;BME280;11544;42.020;23.094;2022-12-11T18:52:34;95611.56;;;10.19;100.00
22755;BME280;11544;42.020;23.094;2022-12-11T18:55:06;95612.91;;;9.96;100.00
22755;BME280;11544;42.020;23.094;2022-12-11T19:11:19;95635.00;;;10.19;100.00
22755;BME280;11544;42.020;23.094;2022-12-11T19:13:46;95635.19;;;9.86;100.00
22755;BME280;11544;42.020;23.094;2022-12-11T19:16:19;95622.78;;;9.75;100.00
22755;BME280;11544;42.020;23.094;2022-12-11T19:18:51;95624.38;;;10.22;100.00
22755;BME280;11544;42.020;23.094;2022-12-11T19:21:18;95631.41;;;10.06;100.00
22755;BME280;11544;42.020;23.094;2022-12-11T19:23:45;95632.28;;;10.06;100.00
22755;BME280;11544;42.020;23.094;2022-12-11T19:26:15;95638.38;;;9.91;100.00
22755;BME280;11544;42.020;23.094;2022-12-11T19:29:31;95635.72;;;10.37;100.00
22755;BME280;11544;42.020;23.094;2022-12-11T19:32:51;95632.53;;;10.60;100.00
22755;BME280;11544;42.020;23.094;2022-12-11T19:35:31;95627.75;;;9.94;100.00
22755;BME280;11544;42.020;23.094;2022-12-11T19:38:01;95631.06;;;10.12;100.00
22755;BME280;11544;42.020;23.094;2022-12-11T19:40:46;95638.63;;;10.16;100.00
22755;BME280;11544;42.020;23.094;2022-12-11T19:43:12;95646.38;;;9.72;100.00
22755;BME280;11544;42.020;23.094;2022-12-11T19:45:42;95654.94;;;9.74;100.00
22755;BME280;11544;42.020;23.094;2022-12-11T20:04:27;95684.00;;;9.66;100.00
22755;BME280;11544;42.020;23.094;2022-12-11T20:06:55;95675.53;;;9.47;100.00
22755;BME280;11544;42.020;23.094;2022-12-11T20:09:27;95681.72;;;9.60;100.00
22755;BME280;11544;42.020;23.094;2022-12-11T20:14:31;95684.13;;;9.33;100.00
22755;BME280;11544;42.020;23.094;2022-12-11T20:20:59;95692.63;;;9.83;100.00
22755;BME280;11544;42.020;23.094;2022-12-11T20:23:29;95690.03;;;9.67;100.00
22755;BME280;11544;42.020;23.094;2022-12-11T20:25:58;95688.78;;;9.74;100.00
22755;BME280;11544;42.020;23.094;2022-12-11T20:28:25;95695.25;;;9.35;100.00
22755;BME280;11544;42.020;23.094;2022-12-11T20:31:06;95701.72;;;9.60;100.00
22755;BME280;11544;42.020;23.094;2022-12-11T20:33:45;95698.34;;;9.42;100.00
22755;BME280;11544;42.020;23.094;2022-12-11T20:36:13;95699.75;;;9.63;100.00
22755;BME280;11544;42.020;23.094;2022-12-11T20:38:41;95706.91;;;9.28;100.00
22755;BME280;11544;42.020;23.094;2022-12-11T20:41:11;95721.94;;;9.39;100.00
22755;BME280;11544;42.020;23.094;2022-12-11T20:43:39;95708.75;;;9.58;100.00
22755;BME280;11544;42.020;23.094;2022-12-11T20:46:11;95713.38;;;9.52;100.00
22755;BME280;11544;42.020;23.094;2022-12-11T20:48:40;95712.09;;;9.28;100.00
22755;BME280;11544;42.020;23.094;2022-12-11T20:51:10;95718.56;;;9.21;100.00
22755;BME280;11544;42.020;23.094;2022-12-11T20:53:38;95732.50;;;9.20;100.00
22755;BME280;11544;42.020;23.094;2022-12-11T20:56:09;95726.84;;;9.11;100.00
22755;BME280;11544;42.020;23.094;2022-12-11T20:58:37;95738.97;;;9.44;100.00
22755;BME280;11544;42.020;23.094;2022-12-11T21:01:04;95741.72;;;9.41;100.00
22755;BME280;11544;42.020;23.094;2022-12-11T21:03:31;95743.84;;;9.50;100.00
22755;BME280;11544;42.020;23.094;2022-12-11T21:06:08;95741.00;;;9.55;100.00
22755;BME280;11544;42.020;23.094;2022-12-11T21:08:42;95732.84;;;9.29;100.00
22755;BME280;11544;42.020;23.094;2022-12-11T21:11:09;95747.03;;;9.56;100.00
22755;BME280;11544;42.020;23.094;2022-12-11T21:13:42;95744.50;;;9.54;100.00
22755;BME280;11544;42.020;23.094;2022-12-11T21:19:01;95745.84;;;9.45;100.00
22755;BME280;11544;42.020;23.094;2022-12-11T21:21:53;95745.81;;;9.14;100.00
22755;BME280;11544;42.020;23.094;2022-12-11T21:24:27;95745.47;;;9.20;100.00
22755;BME280;11544;42.020;23.094;2022-12-11T21:26:59;95743.97;;;8.82;100.00
22755;BME280;11544;42.020;23.094;2022-12-11T21:32:49;95747.22;;;8.53;100.00
22755;BME280;11544;42.020;23.094;2022-12-11T21:35:38;95758.38;;;8.72;100.00
22755;BME280;11544;42.020;23.094;2022-12-11T21:38:05;95748.56;;;8.77;100.00
22755;BME280;11544;42.020;23.094;2022-12-11T22:02:01;95746.28;;;8.88;100.00
22755;BME280;11544;42.020;23.094;2022-12-11T22:04:38;95748.50;;;9.28;100.00
22755;BME280;11544;42.020;23.094;2022-12-11T22:07:38;95752.16;;;8.75;100.00
22755;BME280;11544;42.020;23.094;2022-12-11T22:10:48;95755.19;;;8.83;100.00
22755;BME280;11544;42.020;23.094;2022-12-11T22:14:00;95755.25;;;8.99;100.00
22755;BME280;11544;42.020;23.094;2022-12-11T22:16:41;95762.47;;;8.94;100.00
22755;BME280;11544;42.020;23.094;2022-12-11T22:19:11;95768.06;;;9.02;100.00
22755;BME280;11544;42.020;23.094;2022-12-11T22:21:38;95771.16;;;8.93;100.00
22755;BME280;11544;42.020;23.094;2022-12-11T22:24:05;95773.72;;;8.77;100.00
22755;BME280;11544;42.020;23.094;2022-12-11T22:26:32;95788.22;;;8.81;100.00
22755;BME280;11544;42.020;23.094;2022-12-11T22:29:04;95794.88;;;8.86;100.00
22755;BME280;11544;42.020;23.094;2022-12-11T22:31:31;95787.25;;;9.17;100.00
22755;BME280;11544;42.020;23.094;2022-12-11T22:33:58;95790.41;;;9.06;100.00
22755;BME280;11544;42.020;23.094;2022-12-11T22:36:26;95805.16;;;8.88;100.00
22755;BME280;11544;42.020;23.094;2022-12-11T22:38:55;95811.38;;;8.85;100.00
22755;BME280;11544;42.020;23.094;2022-12-11T22:41:30;95800.25;;;8.48;100.00
22755;BME280;11544;42.020;23.094;2022-12-11T22:43:59;95807.78;;;8.71;100.00
22755;BME280;11544;42.020;23.094;2022-12-11T22:46:28;95797.34;;;8.72;100.00
22755;BME280;11544;42.020;23.094;2022-12-11T22:48:58;95783.19;;;8.78;100.00
22755;BME280;11544;42.020;23.094;2022-12-11T22:51:25;95793.19;;;8.68;100.00
22755;BME280;11544;42.020;23.094;2022-12-11T22:53:52;95808.56;;;8.73;100.00
22755;BME280;11544;42.020;23.094;2022-12-11T22:56:19;95805.91;;;8.38;100.00
22755;BME280;11544;42.020;23.094;2022-12-11T22:58:46;95820.09;;;8.84;100.00
22755;BME280;11544;42.020;23.094;2022-12-11T23:01:21;95825.81;;;8.91;100.00
22755;BME280;11544;42.020;23.094;2022-12-11T23:04:09;95823.22;;;8.56;100.00
22755;BME280;11544;42.020;23.094;2022-12-11T23:06:36;95828.59;;;8.53;100.00
22755;BME280;11544;42.020;23.094;2022-12-11T23:09:03;95811.53;;;8.65;100.00
22755;BME280;11544;42.020;23.094;2022-12-11T23:11:33;95817.22;;;8.37;100.00
22755;BME280;11544;42.020;23.094;2022-12-11T23:14:06;95816.88;;;8.62;100.00
22755;BME280;11544;42.020;23.094;2022-12-11T23:16:33;95825.38;;;8.29;100.00
22755;BME280;11544;42.020;23.094;2022-12-11T23:19:01;95824.41;;;8.32;100.00
22755;BME280;11544;42.020;23.094;2022-12-11T23:21:29;95839.13;;;8.31;100.00
22755;BME280;11544;42.020;23.094;2022-12-11T23:23:57;95846.59;;;8.20;100.00
22755;BME280;11544;42.020;23.094;2022-12-11T23:26:25;95853.00;;;8.13;100.00
22755;BME280;11544;42.020;23.094;2022-12-11T23:28:54;95857.47;;;8.09;100.00
22755;BME280;11544;42.020;23.094;2022-12-11T23:31:22;95857.88;;;8.19;100.00
22755;BME280;11544;42.020;23.094;2022-12-11T23:33:49;95857.41;;;8.11;100.00
22755;BME280;11544;42.020;23.094;2022-12-11T23:36:16;95869.50;;;7.74;100.00
22755;BME280;11544;42.020;23.094;2022-12-11T23:38:43;95878.25;;;7.71;100.00
22755;BME280;11544;42.020;23.094;2022-12-11T23:41:18;95880.38;;;7.82;100.00
22755;BME280;11544;42.020;23.094;2022-12-11T23:43:47;95888.22;;;7.61;100.00
22755;BME280;11544;42.020;23.094;2022-12-11T23:46:17;95888.56;;;8.11;100.00
22755;BME280;11544;42.020;23.094;2022-12-11T23:48:45;95896.84;;;8.00;100.00
22755;BME280;11544;42.020;23.094;2022-12-11T23:51:14;95894.03;;;7.85;100.00
22755;BME280;11544;42.020;23.094;2022-12-11T23:53:42;95898.75;;;7.96;100.00
22755;BME280;11544;42.020;23.094;2022-12-11T23:56:16;95904.16;;;7.92;100.00
22755;BME280;11544;42.020;23.094;2022-12-11T23:58:43;95898.38;;;8.23;100.00
